createdAt,value
2022-09-22T00:01:23.246Z,7.20
2022-09-22T00:03:53.215Z,7.20
2022-09-22T00:06:22.780Z,7.20
2022-09-22T00:08:52.309Z,7.30
2022-09-22T00:11:22.695Z,7.20
2022-09-22T00:13:54.028Z,7.30
2022-09-22T00:16:25.179Z,7.30
2022-09-22T00:18:53.136Z,7.30
2022-09-22T00:21:23.619Z,7.30
2022-09-22T00:23:52.091Z,7.20
2022-09-22T00:26:21.911Z,7.20
2022-09-22T00:28:51.154Z,7.20
2022-09-22T00:31:22.718Z,7.20
2022-09-22T00:33:51.430Z,7.10
2022-09-22T00:36:21.517Z,7.00
2022-09-22T00:38:50.452Z,7.00
2022-09-22T00:41:20.280Z,7.10
2022-09-22T00:43:50.352Z,7.20
2022-09-22T00:46:22.921Z,7.20
2022-09-22T00:48:54.309Z,7.20
2022-09-22T00:51:26.322Z,7.20
2022-09-22T00:53:56.633Z,7.20
2022-09-22T00:56:29.084Z,7.10
2022-09-22T00:58:59.802Z,7.20
2022-09-22T01:01:29.101Z,7.20
2022-09-22T01:03:57.289Z,7.10
2022-09-22T01:06:28.841Z,7.20
2022-09-22T01:08:57.584Z,7.20
2022-09-22T01:11:26.242Z,7.10
2022-09-22T01:14:04.924Z,7.20
2022-09-22T01:16:46.530Z,7.10
2022-09-22T01:19:43.628Z,7.10
2022-09-22T01:22:25.700Z,7.00
2022-09-22T01:25:12.470Z,7.00
2022-09-22T01:28:11.446Z,6.90
2022-09-22T01:30:47.512Z,6.80
2022-09-22T01:33:30.419Z,6.80
2022-09-22T01:36:12.413Z,6.70
2022-09-22T01:38:52.889Z,6.60
2022-09-22T01:41:25.541Z,6.60
2022-09-22T01:43:57.618Z,6.50
2022-09-22T01:46:30.933Z,6.40
2022-09-22T01:49:03.429Z,6.30
2022-09-22T01:51:35.939Z,6.20
2022-09-22T01:54:08.576Z,6.20
2022-09-22T01:56:38.625Z,6.20
2022-09-22T01:59:08.119Z,6.30
2022-09-22T02:01:40.721Z,6.30
2022-09-22T02:04:14.028Z,6.30
2022-09-22T02:06:47.398Z,6.20
2022-09-22T02:09:19.445Z,6.10
2022-09-22T02:11:47.660Z,6.00
2022-09-22T02:14:16.569Z,5.90
2022-09-22T02:16:45.776Z,5.90
2022-09-22T02:19:19.707Z,5.90
2022-09-22T02:21:49.160Z,5.80
2022-09-22T02:24:28.550Z,5.80
2022-09-22T02:26:57.395Z,5.80
2022-09-22T02:29:27.776Z,5.80
2022-09-22T02:31:59.500Z,5.80
2022-09-22T02:34:28.465Z,5.80
2022-09-22T02:37:04.137Z,5.80
2022-09-22T02:39:38.831Z,5.70
2022-09-22T02:42:28.027Z,5.70
2022-09-22T02:45:01.556Z,5.70
2022-09-22T02:47:35.087Z,5.70
2022-09-22T02:50:06.454Z,5.70
2022-09-22T02:52:34.240Z,5.70
2022-09-22T02:55:01.977Z,5.80
2022-09-22T02:57:29.696Z,5.70
2022-09-22T02:59:57.427Z,5.70
2022-09-22T03:02:25.452Z,5.70
2022-09-22T03:04:54.644Z,5.70
2022-09-22T03:07:22.449Z,5.70
2022-09-22T03:09:50.481Z,5.70
2022-09-22T03:12:18.520Z,5.70
2022-09-22T03:14:46.311Z,5.70
2022-09-22T03:17:14.055Z,5.80
2022-09-22T03:19:41.891Z,5.90
2022-09-22T03:22:10.993Z,5.90
2022-09-22T03:24:38.726Z,5.90
2022-09-22T03:27:06.568Z,5.90
2022-09-22T03:29:34.324Z,5.90
2022-09-22T03:32:02.391Z,5.90
2022-09-22T03:34:30.120Z,6.00
2022-09-22T03:36:57.877Z,6.00
2022-09-22T03:39:26.970Z,6.00
2022-09-22T03:41:54.754Z,6.00
2022-09-22T03:44:22.490Z,6.00
2022-09-22T03:46:50.244Z,5.90
2022-09-22T03:49:17.973Z,5.80
2022-09-22T03:51:45.720Z,5.70
2022-09-22T03:54:13.473Z,5.60
2022-09-22T03:56:42.546Z,5.70
2022-09-22T03:59:11.438Z,5.70
2022-09-22T04:01:39.237Z,5.70
2022-09-22T04:04:07.196Z,5.70
2022-09-22T04:06:36.576Z,5.70
2022-09-22T04:09:04.417Z,5.70
2022-09-22T04:11:32.880Z,5.60
2022-09-22T04:14:03.756Z,5.50
2022-09-22T04:16:32.041Z,5.50
2022-09-22T04:19:00.601Z,5.50
2022-09-22T04:21:28.359Z,5.60
2022-09-22T04:23:56.949Z,5.60
2022-09-22T04:26:24.945Z,5.70
2022-09-22T04:28:52.703Z,5.60
2022-09-22T04:31:22.728Z,5.50
2022-09-22T04:33:50.653Z,5.40
2022-09-22T04:36:18.389Z,5.30
2022-09-22T04:38:46.117Z,5.20
2022-09-22T04:41:13.836Z,5.20
2022-09-22T04:43:42.823Z,5.20
2022-09-22T04:46:10.592Z,5.20
2022-09-22T04:48:39.679Z,5.10
2022-09-22T04:51:07.389Z,5.00
2022-09-22T04:53:35.516Z,4.90
2022-09-22T04:56:03.470Z,4.80
2022-09-22T04:58:31.375Z,4.80
2022-09-22T05:01:03.597Z,4.70
2022-09-22T05:03:31.756Z,4.70
2022-09-22T05:06:00.863Z,4.80
2022-09-22T05:08:28.576Z,4.90
2022-09-22T05:10:56.673Z,4.90
2022-09-22T05:13:25.341Z,4.90
2022-09-22T05:15:53.107Z,5.00
2022-09-22T05:18:21.033Z,5.00
2022-09-22T05:20:48.754Z,5.10
2022-09-22T05:23:17.862Z,5.10
2022-09-22T05:25:45.568Z,5.20
2022-09-22T05:28:13.493Z,5.30
2022-09-22T05:30:41.249Z,5.30
2022-09-22T05:33:08.995Z,5.40
2022-09-22T05:35:37.263Z,5.50
2022-09-22T05:38:05.214Z,5.60
2022-09-22T05:40:34.379Z,5.50
2022-09-22T05:43:02.168Z,5.40
2022-09-22T05:45:29.976Z,5.30
2022-09-22T05:47:57.740Z,5.30
2022-09-22T05:50:25.464Z,5.30
2022-09-22T05:53:03.548Z,5.30
2022-09-22T05:55:31.309Z,5.40
2022-09-22T05:58:01.060Z,5.40
2022-09-22T06:00:28.988Z,5.50
2022-09-22T06:02:56.853Z,5.40
2022-09-22T06:05:24.929Z,5.50
2022-09-22T06:08:00.660Z,5.50
2022-09-22T06:10:28.497Z,5.70
2022-09-22T06:13:00.559Z,5.80
2022-09-22T06:15:28.736Z,5.80
2022-09-22T06:17:56.577Z,5.90
2022-09-22T06:20:24.444Z,5.90
2022-09-22T06:22:52.409Z,6.00
2022-09-22T06:25:20.188Z,6.20
2022-09-22T06:27:47.943Z,6.20
2022-09-22T06:30:17.087Z,6.40
2022-09-22T06:32:45.934Z,6.50
2022-09-22T06:35:13.674Z,6.60
2022-09-22T06:37:42.807Z,6.70
2022-09-22T06:40:15.262Z,6.80
2022-09-22T06:42:45.001Z,6.90
2022-09-22T06:45:13.728Z,7.00
2022-09-22T06:47:42.997Z,7.00
2022-09-22T06:50:10.889Z,7.10
2022-09-22T06:52:38.692Z,7.20
2022-09-22T06:55:07.437Z,7.30
2022-09-22T06:57:35.211Z,7.40
2022-09-22T07:00:03.754Z,7.50
2022-09-22T07:02:31.687Z,7.60
2022-09-22T07:05:00.801Z,7.80
2022-09-22T07:07:28.955Z,8.00
2022-09-22T07:09:56.833Z,8.10
2022-09-22T07:12:25.300Z,8.20
2022-09-22T07:14:54.026Z,8.30
2022-09-22T07:17:21.877Z,8.60
2022-09-22T07:19:51.004Z,8.70
2022-09-22T07:22:20.129Z,8.90
2022-09-22T07:24:47.894Z,9.10
2022-09-22T07:27:23.026Z,9.30
2022-09-22T07:29:51.953Z,9.40
2022-09-22T07:32:21.746Z,9.60
2022-09-22T07:34:49.722Z,9.70
2022-09-22T07:37:17.529Z,9.90
2022-09-22T07:39:46.661Z,10.00
2022-09-22T07:42:14.426Z,10.10
2022-09-22T07:44:59.844Z,10.20
2022-09-22T07:47:56.828Z,10.30
2022-09-22T07:50:24.606Z,10.50
2022-09-22T07:52:53.192Z,10.70
2022-09-22T07:55:24.947Z,10.90
2022-09-22T07:57:57.108Z,11.00
2022-09-22T08:00:25.933Z,11.20
2022-09-22T08:02:55.293Z,11.30
2022-09-22T08:05:24.000Z,11.50
2022-09-22T08:07:52.156Z,11.70
2022-09-22T08:10:21.773Z,11.80
2022-09-22T08:12:52.143Z,12.00
2022-09-22T08:15:24.701Z,12.20
2022-09-22T08:17:57.949Z,12.40
2022-09-22T08:20:28.768Z,12.60
2022-09-22T08:22:58.010Z,12.80
2022-09-22T08:25:27.156Z,13.10
2022-09-22T08:27:55.023Z,13.40
2022-09-22T08:30:22.807Z,13.70
2022-09-22T08:32:50.590Z,14.00
2022-09-22T08:35:18.399Z,14.20
2022-09-22T08:37:46.198Z,14.50
2022-09-22T08:40:21.073Z,14.80
2022-09-22T08:42:54.242Z,15.00
2022-09-22T08:45:31.646Z,15.30
2022-09-22T08:48:21.929Z,15.50
2022-09-22T08:51:09.787Z,15.60
2022-09-22T08:53:45.027Z,15.90
2022-09-22T08:56:20.051Z,16.10
2022-09-22T08:58:54.460Z,16.30
2022-09-22T09:01:43.650Z,16.60
2022-09-22T09:04:44.119Z,16.80
2022-09-22T09:07:21.588Z,16.90
2022-09-22T09:10:00.648Z,17.00
2022-09-22T09:12:42.960Z,17.10
2022-09-22T09:15:25.477Z,17.40
2022-09-22T09:17:58.073Z,17.60
2022-09-22T09:20:35.110Z,17.60
2022-09-22T09:23:07.189Z,17.60
2022-09-22T09:25:41.029Z,17.90
2022-09-22T09:28:14.688Z,18.10
2022-09-22T09:30:46.406Z,18.30
2022-09-22T09:33:27.113Z,18.40
2022-09-22T09:35:55.314Z,18.50
2022-09-22T09:38:30.318Z,18.60
2022-09-22T09:41:08.996Z,18.80
2022-09-22T09:43:38.036Z,19.00
2022-09-22T09:46:24.609Z,18.90
2022-09-22T09:49:05.505Z,18.90
2022-09-22T09:51:39.895Z,19.00
2022-09-22T09:54:13.181Z,19.10
2022-09-22T09:57:05.204Z,19.20
2022-09-22T09:59:56.048Z,19.20
2022-09-22T10:02:28.511Z,19.30
2022-09-22T10:04:58.457Z,19.50
2022-09-22T10:07:28.816Z,19.50
2022-09-22T10:09:57.241Z,19.60
2022-09-22T10:12:28.004Z,19.80
2022-09-22T10:14:57.661Z,19.90
2022-09-22T10:17:29.865Z,19.90
2022-09-22T10:20:20.241Z,20.10
2022-09-22T10:22:48.333Z,20.10
2022-09-22T10:25:23.607Z,20.20
2022-09-22T10:28:02.427Z,20.40
2022-09-22T10:30:32.863Z,20.60
2022-09-22T10:33:11.588Z,20.80
2022-09-22T10:35:40.363Z,20.70
2022-09-22T10:38:15.889Z,20.70
2022-09-22T10:40:47.636Z,20.50
2022-09-22T10:43:31.161Z,20.20
2022-09-22T10:46:16.919Z,19.90
2022-09-22T10:48:49.987Z,19.50
2022-09-22T10:51:27.125Z,19.20
2022-09-22T10:54:21.511Z,19.00
2022-09-22T10:56:54.475Z,18.80
2022-09-22T10:59:40.383Z,18.80
2022-09-22T11:02:34.398Z,18.80
2022-09-22T11:05:17.974Z,19.10
2022-09-22T11:08:17.131Z,19.40
2022-09-22T11:11:11.214Z,19.50
2022-09-22T11:13:48.493Z,19.60
2022-09-22T11:16:38.896Z,19.60
2022-09-22T11:19:24.691Z,19.40
2022-09-22T11:22:10.529Z,19.00
2022-09-22T11:24:49.434Z,18.80
2022-09-22T11:27:26.911Z,18.90
2022-09-22T11:30:16.092Z,19.10
2022-09-22T11:33:19.496Z,19.40
2022-09-22T11:36:12.653Z,19.70
2022-09-22T11:39:13.228Z,20.00
2022-09-22T11:41:45.147Z,20.20
2022-09-22T11:44:37.005Z,20.30
2022-09-22T11:47:24.593Z,20.40
2022-09-22T11:50:09.267Z,20.30
2022-09-22T11:52:58.551Z,20.20
2022-09-22T11:55:36.313Z,20.10
2022-09-22T11:58:11.957Z,20.10
2022-09-22T12:00:46.744Z,20.10
2022-09-22T12:03:17.432Z,20.00
2022-09-22T12:05:49.815Z,20.10
2022-09-22T12:08:21.069Z,20.10
2022-09-22T12:10:50.088Z,20.00
2022-09-22T12:13:21.713Z,19.90
2022-09-22T12:15:59.932Z,19.90
2022-09-22T12:18:38.874Z,19.90
2022-09-22T12:21:16.228Z,19.80
2022-09-22T12:23:51.196Z,19.90
2022-09-22T12:26:27.676Z,19.90
2022-09-22T12:28:58.564Z,19.70
2022-09-22T12:31:34.780Z,19.70
2022-09-22T12:34:04.976Z,19.80
2022-09-22T12:36:35.391Z,19.80
2022-09-22T12:39:16.286Z,19.90
2022-09-22T12:41:48.569Z,20.00
2022-09-22T12:44:21.953Z,20.10
2022-09-22T12:46:50.839Z,20.10
2022-09-22T12:49:22.682Z,20.00
2022-09-22T12:51:51.248Z,20.10
2022-09-22T12:54:47.623Z,20.20
2022-09-22T12:57:44.500Z,20.30
2022-09-22T13:00:32.154Z,20.50
2022-09-22T13:03:01.519Z,20.40
2022-09-22T13:05:34.733Z,20.40
2022-09-22T13:08:03.291Z,20.30
2022-09-22T13:10:55.333Z,20.30
2022-09-22T13:13:36.837Z,20.20
2022-09-22T13:16:35.374Z,20.10
2022-09-22T13:19:04.631Z,20.10
2022-09-22T13:21:34.323Z,20.00
2022-09-22T13:24:04.945Z,19.80
2022-09-22T13:26:34.873Z,19.70
2022-09-22T13:29:06.550Z,19.60
2022-09-22T13:31:40.893Z,19.70
2022-09-22T13:34:23.464Z,19.70
2022-09-22T13:36:52.889Z,19.70
2022-09-22T13:39:23.306Z,19.70
2022-09-22T13:41:53.632Z,19.60
2022-09-22T13:44:26.975Z,19.50
2022-09-22T13:46:58.265Z,19.40
2022-09-22T13:49:32.116Z,19.30
2022-09-22T13:52:04.972Z,19.30
2022-09-22T13:54:35.556Z,19.30
2022-09-22T13:57:06.865Z,19.30
2022-09-22T13:59:40.765Z,19.20
2022-09-22T14:02:12.370Z,19.10
2022-09-22T14:04:50.663Z,19.10
2022-09-22T14:07:20.031Z,19.10
2022-09-22T14:09:48.517Z,19.00
2022-09-22T14:12:17.326Z,18.90
2022-09-22T14:14:45.132Z,18.90
2022-09-22T14:17:18.924Z,18.90
2022-09-22T14:19:53.429Z,18.80
2022-09-22T14:22:24.188Z,18.80
2022-09-22T14:24:55.409Z,18.70
2022-09-22T14:27:27.386Z,18.70
2022-09-22T14:29:56.679Z,18.60
2022-09-22T14:32:33.694Z,18.60
2022-09-22T14:35:04.612Z,18.50
2022-09-22T14:37:36.489Z,18.50
2022-09-22T14:40:14.377Z,18.40
2022-09-22T14:42:42.229Z,18.40
2022-09-22T14:45:21.820Z,18.20
2022-09-22T14:48:16.137Z,18.20
2022-09-22T14:50:46.173Z,18.10
2022-09-22T14:53:18.972Z,18.10
2022-09-22T14:55:49.037Z,18.10
2022-09-22T14:58:19.088Z,18.10
2022-09-22T15:01:12.745Z,18.00
2022-09-22T15:03:43.481Z,17.90
2022-09-22T15:06:14.466Z,17.80
2022-09-22T15:08:44.756Z,17.80
2022-09-22T15:11:12.968Z,17.70
2022-09-22T15:13:42.594Z,17.60
2022-09-22T15:16:39.096Z,17.60
2022-09-22T15:19:11.742Z,17.60
2022-09-22T15:21:48.284Z,17.60
2022-09-22T15:24:26.019Z,17.60
2022-09-22T15:26:57.210Z,17.60
2022-09-22T15:29:24.952Z,17.50
2022-09-22T15:31:52.697Z,17.50
2022-09-22T15:34:21.776Z,17.40
2022-09-22T15:36:51.163Z,17.40
2022-09-22T15:39:22.648Z,17.30
2022-09-22T15:41:50.724Z,17.30
2022-09-22T15:44:18.640Z,17.30
2022-09-22T15:46:51.160Z,17.20
2022-09-22T15:49:23.218Z,17.20
2022-09-22T15:51:52.496Z,17.10
2022-09-22T15:54:21.940Z,17.10
2022-09-22T15:56:52.157Z,17.00
2022-09-22T15:59:22.189Z,17.00
2022-09-22T16:01:51.783Z,16.90
2022-09-22T16:04:19.974Z,16.80
2022-09-22T16:06:54.123Z,16.80
2022-09-22T16:09:21.932Z,16.70
2022-09-22T16:11:49.795Z,16.70
2022-09-22T16:14:18.217Z,16.60
2022-09-22T16:16:45.969Z,16.60
2022-09-22T16:19:13.849Z,16.60
2022-09-22T16:21:49.489Z,16.50
2022-09-22T16:24:18.853Z,16.50
2022-09-22T16:26:46.594Z,16.40
2022-09-22T16:29:14.468Z,16.30
2022-09-22T16:31:42.301Z,16.30
2022-09-22T16:34:11.674Z,16.20
2022-09-22T16:36:39.845Z,16.20
2022-09-22T16:39:07.662Z,16.10
2022-09-22T16:41:37.187Z,16.10
2022-09-22T16:44:05.471Z,16.00
2022-09-22T16:46:34.931Z,16.00
2022-09-22T16:49:05.164Z,15.90
2022-09-22T16:51:35.348Z,15.80
2022-09-22T16:54:03.252Z,15.80
2022-09-22T16:56:32.657Z,15.70
2022-09-22T16:59:03.070Z,15.60
2022-09-22T17:01:32.616Z,15.50
2022-09-22T17:04:00.417Z,15.50
2022-09-22T17:06:28.470Z,15.40
2022-09-22T17:08:58.300Z,15.20
2022-09-22T17:11:30.050Z,15.00
2022-09-22T17:14:01.281Z,14.80
2022-09-22T17:16:33.468Z,14.50
2022-09-22T17:19:03.218Z,14.40
2022-09-22T17:21:34.405Z,14.20
2022-09-22T17:24:03.406Z,14.20
2022-09-22T17:26:32.619Z,14.10
2022-09-22T17:29:00.477Z,14.00
2022-09-22T17:31:30.998Z,14.00
2022-09-22T17:33:59.310Z,14.00
2022-09-22T17:36:28.752Z,13.90
2022-09-22T17:38:58.380Z,13.90
2022-09-22T17:41:29.485Z,13.90
2022-09-22T17:43:57.472Z,13.80
2022-09-22T17:46:26.666Z,13.70
2022-09-22T17:49:13.631Z,13.60
2022-09-22T17:52:00.684Z,13.50
2022-09-22T17:54:48.042Z,13.40
2022-09-22T17:57:18.022Z,13.20
2022-09-22T17:59:47.165Z,13.00
2022-09-22T18:02:16.347Z,12.90
2022-09-22T18:04:46.088Z,12.90
2022-09-22T18:07:17.810Z,12.80
2022-09-22T18:09:47.445Z,12.80
2022-09-22T18:12:19.708Z,12.60
2022-09-22T18:14:48.771Z,12.50
2022-09-22T18:17:18.057Z,12.40
2022-09-22T18:19:47.227Z,12.20
2022-09-22T18:22:17.006Z,12.20
2022-09-22T18:24:45.118Z,12.10
2022-09-22T18:27:13.175Z,11.90
2022-09-22T18:29:40.944Z,11.80
2022-09-22T18:32:08.660Z,11.70
2022-09-22T18:34:37.540Z,11.60
2022-09-22T18:37:06.621Z,11.60
2022-09-22T18:39:35.121Z,11.40
2022-09-22T18:42:02.882Z,11.20
2022-09-22T18:44:30.656Z,11.10
2022-09-22T18:47:03.056Z,11.00
2022-09-22T18:49:33.240Z,10.90
2022-09-22T18:52:02.277Z,10.80
2022-09-22T18:54:31.370Z,10.70
2022-09-22T18:56:59.137Z,10.60
2022-09-22T18:59:28.080Z,10.50
2022-09-22T19:01:56.174Z,10.50
2022-09-22T19:04:26.503Z,10.50
2022-09-22T19:07:13.775Z,10.50
2022-09-22T19:09:44.290Z,10.50
2022-09-22T19:12:13.936Z,10.60
2022-09-22T19:14:42.033Z,10.60
2022-09-22T19:17:11.407Z,10.60
2022-09-22T19:19:42.235Z,10.60
2022-09-22T19:22:13.593Z,10.60
2022-09-22T19:24:46.062Z,10.60
2022-09-22T19:27:15.279Z,10.60
2022-09-22T19:29:43.116Z,10.50
2022-09-22T19:32:10.873Z,10.50
2022-09-22T19:34:38.620Z,10.40
2022-09-22T19:37:06.857Z,10.40
2022-09-22T19:39:34.794Z,10.40
2022-09-22T19:42:04.037Z,10.30
2022-09-22T19:44:32.345Z,10.30
2022-09-22T19:47:00.110Z,10.30
2022-09-22T19:49:28.237Z,10.10
2022-09-22T19:51:55.985Z,10.00
2022-09-22T19:54:24.045Z,9.90
2022-09-22T19:56:51.813Z,9.80
2022-09-22T19:59:20.924Z,9.80
2022-09-22T20:01:49.062Z,9.80
2022-09-22T20:04:18.825Z,9.80
2022-09-22T20:06:47.645Z,9.80
2022-09-22T20:09:15.582Z,9.80
2022-09-22T20:11:45.511Z,9.80
2022-09-22T20:14:25.152Z,9.70
2022-09-22T20:16:55.971Z,9.60
2022-09-22T20:19:25.840Z,9.60
2022-09-22T20:21:54.917Z,9.50
2022-09-22T20:24:24.008Z,9.50
2022-09-22T20:26:53.507Z,9.50
2022-09-22T20:29:21.379Z,9.50
2022-09-22T20:31:49.151Z,9.40
2022-09-22T20:34:18.355Z,9.40
2022-09-22T20:36:46.107Z,9.30
2022-09-22T20:39:15.225Z,9.30
2022-09-22T20:41:44.119Z,9.30
2022-09-22T20:44:14.475Z,9.40
2022-09-22T20:46:43.049Z,9.30
2022-09-22T20:49:13.465Z,9.30
2022-09-22T20:51:42.757Z,9.30
2022-09-22T20:54:10.824Z,9.30
2022-09-22T20:56:42.621Z,9.40
2022-09-22T20:59:11.067Z,9.30
2022-09-22T21:01:38.852Z,9.30
2022-09-22T21:04:06.862Z,9.30
2022-09-22T21:06:34.668Z,9.30
2022-09-22T21:09:21.229Z,9.30
2022-09-22T21:11:48.966Z,9.40
2022-09-22T21:14:16.931Z,9.40
2022-09-22T21:16:44.675Z,9.40
2022-09-22T21:19:12.629Z,9.40
2022-09-22T21:21:40.721Z,9.30
2022-09-22T21:24:10.974Z,9.30
2022-09-22T21:26:38.722Z,9.30
2022-09-22T21:29:06.497Z,9.20
2022-09-22T21:31:35.599Z,9.10
2022-09-22T21:34:03.397Z,9.10
2022-09-22T21:36:31.146Z,9.00
2022-09-22T21:39:00.362Z,8.90
2022-09-22T21:41:31.097Z,8.80
2022-09-22T21:43:59.870Z,8.70
2022-09-22T21:46:29.700Z,8.60
2022-09-22T21:49:01.417Z,8.50
2022-09-22T21:51:30.373Z,8.50
2022-09-22T21:53:58.148Z,8.50
2022-09-22T21:56:26.841Z,8.50
2022-09-22T21:58:56.424Z,8.40
2022-09-22T22:01:26.299Z,8.40
2022-09-22T22:03:56.317Z,8.50
2022-09-22T22:06:26.104Z,8.50
2022-09-22T22:09:01.402Z,8.50
2022-09-22T22:11:31.112Z,8.50
2022-09-22T22:14:01.808Z,8.50
2022-09-22T22:16:32.853Z,8.50
2022-09-22T22:19:01.081Z,8.50
2022-09-22T22:21:30.728Z,8.50
2022-09-22T22:24:20.848Z,8.60
2022-09-22T22:26:51.313Z,8.60
2022-09-22T22:29:21.343Z,8.60
2022-09-22T22:31:49.861Z,8.60
2022-09-22T22:34:19.243Z,8.60
2022-09-22T22:36:48.677Z,8.60
2022-09-22T22:39:16.982Z,8.50
2022-09-22T22:41:45.382Z,8.40
2022-09-22T22:44:13.221Z,8.40
2022-09-22T22:46:42.361Z,8.40
2022-09-22T22:49:11.454Z,8.50
2022-09-22T22:51:42.641Z,8.50
2022-09-22T22:54:11.595Z,8.50
2022-09-22T22:56:42.518Z,8.50
2022-09-22T22:59:11.934Z,8.50
2022-09-22T23:01:40.249Z,8.40
2022-09-22T23:04:11.704Z,8.30
2022-09-22T23:06:43.686Z,8.30
2022-09-22T23:09:14.498Z,8.20
2022-09-22T23:11:43.784Z,8.20
2022-09-22T23:14:13.060Z,8.10
2022-09-22T23:16:43.027Z,8.10
2022-09-22T23:19:14.517Z,8.00
2022-09-22T23:21:42.585Z,8.00
2022-09-22T23:24:15.193Z,8.00
2022-09-22T23:26:43.041Z,8.00
2022-09-22T23:29:10.871Z,8.00
2022-09-22T23:31:38.702Z,8.00
2022-09-22T23:34:06.444Z,8.00
2022-09-22T23:36:35.620Z,8.00
2022-09-22T23:39:04.641Z,7.90
2022-09-22T23:41:33.526Z,7.80
2022-09-22T23:44:02.667Z,7.70
2022-09-22T23:46:30.644Z,7.70
2022-09-22T23:48:59.870Z,7.70
2022-09-22T23:51:27.818Z,7.70
2022-09-22T23:53:57.651Z,7.60
2022-09-22T23:56:27.527Z,7.60
2022-09-22T23:58:55.322Z,7.60
